Time;durP1;ratioP1;P1;durP2;ratioP2;P2;SDS_P1;SDS_P2;PMS_P1;PMS_P2;Temp;Humidity;BMP_temperature;BMP_pressure;BME280_temperature;BME280_humidity;BME280_pressure;Samples;Min_cycle;Max_cycle;Signal;HPM_P1;HPM_P2
2022/12/27 00:01:12;;;;;;;;;;;5.50;99.90;;;;;;5034266;28;19916;-76
2022/12/27 00:03:54;;;;;;;;;;;6.10;99.90;;;;;;5023573;28;20153;-80
2022/12/27 00:06:22;;;;;;;;;;;6.10;99.90;;;;;;5039305;28;19905;-77
2022/12/27 00:08:48;;;;;;;;;;;6.10;99.90;;;;;;5016268;28;19908;-78
2022/12/27 00:11:17;;;;;;;;;;;6.10;99.90;;;;;;5032386;28;20002;-77
2022/12/27 00:13:44;;;;;;;;;;;7.10;99.90;;;;;;5017150;28;20004;-77
2022/12/27 00:16:11;;;;;;;;;;;3.10;99.90;;;;;;5038355;28;19916;-78
2022/12/27 00:18:42;;;;;;;;;;;6.10;99.90;;;;;;5032156;28;20031;-77
2022/12/27 00:21:19;;;;;;;;;;;6.00;99.90;;;;;;5036051;28;19909;-77
2022/12/27 00:23:47;;;;;;;;;;;6.00;99.90;;;;;;5036870;28;19901;-77
2022/12/27 00:26:19;;;;;;;;;;;6.00;99.90;;;;;;5040247;28;19912;-77
2022/12/27 00:28:44;;;;;;;;;;;6.00;99.90;;;;;;5036917;28;19905;-78
2022/12/27 00:31:11;;;;;;;;;;;6.00;99.90;;;;;;5038410;28;19901;-79
2022/12/27 00:33:38;;;;;;;;;;;6.00;99.90;;;;;;5038567;28;19905;-78
2022/12/27 00:36:05;;;;;;;;;;;5.80;99.90;;;;;;5032504;28;19952;-77
2022/12/27 00:38:31;;;;;;;;;;;5.80;99.90;;;;;;5036556;28;19901;-77
2022/12/27 00:40:59;;;;;;;;;;;5.90;99.90;;;;;;5032215;28;19905;-77
2022/12/27 00:43:26;;;;;;;;;;;3.40;99.90;;;;;;5039338;28;19912;-77
2022/12/27 00:45:53;;;;;;;;;;;5.80;99.90;;;;;;5038600;28;19905;-77
2022/12/27 00:48:20;;;;;;;;;;;5.80;99.90;;;;;;5017763;28;19901;-77
2022/12/27 00:50:47;;;;;;;;;;;5.80;99.90;;;;;;5001350;28;19966;-77
2022/12/27 00:53:13;;;;;;;;;;;5.90;99.90;;;;;;5024840;28;19952;-77
2022/12/27 00:55:41;;;;;;;;;;;5.80;99.90;;;;;;5024860;28;19909;-78
2022/12/27 00:58:08;;;;;;;;;;;5.70;99.90;;;;;;5000548;28;19941;-77
2022/12/27 01:00:35;;;;;;;;;;;5.70;99.90;;;;;;5007959;28;19906;-77
2022/12/27 01:03:01;;;;;;;;;;;5.70;99.90;;;;;;5013243;28;19936;-77
2022/12/27 01:05:27;;;;;;;;;;;5.60;99.90;;;;;;5013784;28;20606;-77
2022/12/27 01:07:53;;;;;;;;;;;5.60;99.90;;;;;;5012377;28;19975;-77
2022/12/27 01:10:20;;;;;;;;;;;5.60;99.90;;;;;;5012802;28;20009;-77
2022/12/27 01:13:04;;;;;;;;;;;5.60;99.90;;;;;;5022910;28;19889;-77
2022/12/27 01:15:33;;;;;;;;;;;5.60;99.90;;;;;;5029309;28;19913;-78
2022/12/27 01:18:19;;;;;;;;;;;5.60;99.90;;;;;;5024016;28;19905;-76
2022/12/27 01:20:46;;;;;;;;;;;5.60;99.90;;;;;;4990890;28;19921;-79
2022/12/27 01:23:12;;;;;;;;;;;5.60;99.90;;;;;;5014324;28;19901;-79
2022/12/27 01:25:38;;;;;;;;;;;5.00;99.90;;;;;;5020248;28;19944;-78
2022/12/27 01:28:03;;;;;;;;;;;5.70;99.90;;;;;;5023580;28;19936;-77
2022/12/27 01:30:29;;;;;;;;;;;5.70;99.90;;;;;;5013627;28;19940;-77
2022/12/27 01:32:56;;;;;;;;;;;7.00;99.90;;;;;;5012887;28;19909;-78
2022/12/27 01:35:21;;;;;;;;;;;6.00;99.90;;;;;;5012922;28;19980;-77
2022/12/27 01:37:50;;;;;;;;;;;5.80;99.90;;;;;;5012553;28;19912;-77
2022/12/27 01:40:16;;;;;;;;;;;5.70;99.90;;;;;;5011189;28;19932;-77
2022/12/27 01:42:51;;;;;;;;;;;5.70;99.90;;;;;;5013728;28;19927;-77
2022/12/27 01:45:19;;;;;;;;;;;5.90;99.90;;;;;;5013570;28;19920;-77
2022/12/27 01:47:55;;;;;;;;;;;5.70;99.90;;;;;;5016964;28;19905;-78
2022/12/27 01:51:01;;;;;;;;;;;6.30;99.90;;;;;;5038005;28;19908;-78
2022/12/27 01:53:28;;;;;;;;;;;5.70;99.90;;;;;;4985990;28;20640;-78
2022/12/27 01:55:55;;;;;;;;;;;9.20;99.90;;;;;;4982921;28;19920;-78
2022/12/27 01:58:30;;;;;;;;;;;5.70;99.90;;;;;;4981640;28;20451;-77
2022/12/27 02:01:02;;;;;;;;;;;5.70;99.90;;;;;;4984207;28;19906;-77
2022/12/27 02:03:31;;;;;;;;;;;5.70;99.90;;;;;;4969948;28;19949;-79
2022/12/27 02:05:58;;;;;;;;;;;5.70;99.90;;;;;;4969892;28;19902;-78
2022/12/27 02:08:47;;;;;;;;;;;5.70;99.90;;;;;;4950707;28;19914;-79
2022/12/27 02:11:15;;;;;;;;;;;6.00;99.90;;;;;;4976859;28;19918;-78
2022/12/27 02:13:45;;;;;;;;;;;5.70;99.90;;;;;;4971503;28;19917;-77
2022/12/27 02:16:15;;;;;;;;;;;5.70;99.90;;;;;;4958420;28;20331;-77
2022/12/27 02:18:42;;;;;;;;;;;5.60;99.90;;;;;;4986736;28;19945;-77
2022/12/27 02:21:40;;;;;;;;;;;5.60;99.90;;;;;;4963403;28;19912;-76
2022/12/27 02:24:37;;;;;;;;;;;5.60;99.90;;;;;;4902560;29;20005;-77
2022/12/27 02:27:11;;;;;;;;;;;5.60;99.90;;;;;;4918796;29;19966;-78
2022/12/27 02:29:36;;;;;;;;;;;5.60;99.90;;;;;;4933369;29;20483;-77
2022/12/27 02:32:30;;;;;;;;;;;5.70;99.90;;;;;;4933787;29;19898;-78
2022/12/27 02:35:02;;;;;;;;;;;5.70;99.90;;;;;;4938681;29;19910;-78
2022/12/27 02:37:29;;;;;;;;;;;7.10;99.90;;;;;;4934893;29;19918;-81
2022/12/27 02:53:02;;;;;;;;;;;5.90;99.90;;;;;;4934447;29;19914;-79
2022/12/27 02:54:03;;;;;;;;;;;6.50;99.90;;;;;;4876325;29;19923;-77
2022/12/27 03:03:19;;;;;;;;;;;6.20;99.90;;;;;;4908251;29;20164;-77
2022/12/27 03:05:33;;;;;;;;;;;6.20;99.90;;;;;;4956487;28;20473;-77
2022/12/27 03:08:22;;;;;;;;;;;6.20;99.90;;;;;;4955951;29;20584;-77
2022/12/27 03:16:55;;;;;;;;;;;6.20;99.90;;;;;;4954647;29;19989;-77
2022/12/27 03:27:43;;;;;;;;;;;8.60;99.90;;;;;;4956559;29;19909;-77
2022/12/27 03:33:16;;;;;;;;;;;4.50;99.90;;;;;;5046932;28;19958;-78
2022/12/27 03:39:05;;;;;;;;;;;9.00;99.90;;;;;;5039293;28;19908;-79
2022/12/27 03:44:28;;;;;;;;;;;6.70;99.90;;;;;;5044085;28;19947;-78
2022/12/27 03:46:59;;;;;;;;;;;6.70;99.90;;;;;;5042129;28;19925;-77
2022/12/27 03:49:39;;;;;;;;;;;6.40;99.90;;;;;;5034271;28;19924;-77
2022/12/27 03:52:18;;;;;;;;;;;6.80;99.90;;;;;;5032596;28;19905;-77
2022/12/27 03:54:46;;;;;;;;;;;6.60;99.90;;;;;;5031692;28;19912;-80
2022/12/27 03:57:13;;;;;;;;;;;3.90;99.90;;;;;;5014442;28;19923;-77
2022/12/27 03:59:39;;;;;;;;;;;6.80;99.90;;;;;;5033024;28;19905;-77
2022/12/27 04:02:06;;;;;;;;;;;6.70;99.90;;;;;;5030937;28;20011;-77
2022/12/27 04:04:32;;;;;;;;;;;6.70;99.90;;;;;;5032137;28;19905;-78
2022/12/27 04:06:57;;;;;;;;;;;6.80;99.90;;;;;;5011793;28;19913;-77
2022/12/27 04:36:51;;;;;;;;;;;6.50;99.90;;;;;;5024742;28;20164;-78
2022/12/27 04:39:19;;;;;;;;;;;6.50;99.90;;;;;;5032992;28;20504;-77
2022/12/27 04:55:29;;;;;;;;;;;6.30;99.90;;;;;;5041963;28;20310;-78
2022/12/27 04:57:58;;;;;;;;;;;6.40;99.90;;;;;;5037460;28;19957;-79
2022/12/27 05:03:27;;;;;;;;;;;7.50;99.90;;;;;;5042213;28;19956;-78
2022/12/27 05:05:59;;;;;;;;;;;6.40;99.90;;;;;;5027191;28;19929;-79
2022/12/27 05:14:00;;;;;;;;;;;6.50;99.90;;;;;;5035247;28;19916;-78
2022/12/27 05:16:37;;;;;;;;;;;6.40;99.90;;;;;;5027436;28;19951;-77
2022/12/27 05:19:03;;;;;;;;;;;6.40;99.90;;;;;;5031058;28;19905;-78
2022/12/27 05:21:29;;;;;;;;;;;6.30;99.90;;;;;;5018298;28;19909;-78
2022/12/27 05:26:39;;;;;;;;;;;6.40;99.90;;;;;;5037908;28;20012;-76
2022/12/27 05:29:09;;;;;;;;;;;6.40;99.90;;;;;;5034863;28;19913;-78
2022/12/27 05:31:35;;;;;;;;;;;6.50;99.90;;;;;;5037201;28;19975;-78
2022/12/27 05:34:00;;;;;;;;;;;6.50;99.90;;;;;;5036133;28;19909;-78
2022/12/27 05:36:30;;;;;;;;;;;6.60;99.90;;;;;;5038191;28;19921;-78
2022/12/27 05:38:57;;;;;;;;;;;6.60;99.90;;;;;;5039318;28;19905;-77
2022/12/27 05:41:23;;;;;;;;;;;6.60;99.90;;;;;;5029821;28;19909;-77
2022/12/27 05:43:49;;;;;;;;;;;6.70;99.90;;;;;;5031629;28;20046;-78
2022/12/27 05:46:24;;;;;;;;;;;6.70;99.90;;;;;;5037368;28;20039;-78
2022/12/27 05:48:58;;;;;;;;;;;6.80;99.90;;;;;;5029882;28;19920;-78
2022/12/27 05:51:24;;;;;;;;;;;6.80;99.90;;;;;;5028039;28;19905;-82
2022/12/27 05:53:50;;;;;;;;;;;6.80;99.90;;;;;;5012577;28;19912;-78
2022/12/27 05:56:17;;;;;;;;;;;6.50;99.90;;;;;;5035130;28;19917;-77
2022/12/27 05:58:45;;;;;;;;;;;6.70;99.90;;;;;;5036939;28;19913;-77
2022/12/27 06:01:13;;;;;;;;;;;6.80;99.90;;;;;;5022019;28;19924;-78
2022/12/27 06:03:40;;;;;;;;;;;6.80;99.90;;;;;;5032380;28;20040;-78
2022/12/27 06:06:07;;;;;;;;;;;8.60;99.90;;;;;;5026124;28;19970;-77
2022/12/27 06:08:36;;;;;;;;;;;9.80;99.90;;;;;;5039827;28;19909;-77
2022/12/27 06:11:04;;;;;;;;;;;6.90;99.90;;;;;;5036060;28;19920;-77
2022/12/27 06:13:33;;;;;;;;;;;6.80;99.90;;;;;;5026881;28;19908;-78
2022/12/27 06:16:01;;;;;;;;;;;6.80;99.90;;;;;;5049367;28;19924;-78
2022/12/27 06:18:33;;;;;;;;;;;5.00;99.90;;;;;;5032029;28;19916;-76
2022/12/27 06:21:07;;;;;;;;;;;7.00;99.90;;;;;;5036485;28;19916;-78
2022/12/27 06:23:36;;;;;;;;;;;7.00;99.90;;;;;;5038071;28;19913;-78
2022/12/27 06:26:06;;;;;;;;;;;7.00;99.90;;;;;;5038525;28;19905;-78
2022/12/27 06:28:32;;;;;;;;;;;7.10;99.90;;;;;;5035240;28;20363;-77
2022/12/27 06:30:59;;;;;;;;;;;7.10;99.90;;;;;;5024802;28;19916;-78
2022/12/27 06:33:27;;;;;;;;;;;7.20;99.90;;;;;;5042866;28;19924;-79
2022/12/27 06:35:53;;;;;;;;;;;7.20;99.90;;;;;;5046624;28;19924;-77
2022/12/27 06:38:19;;;;;;;;;;;7.20;99.90;;;;;;5046480;28;20358;-77
2022/12/27 06:40:48;;;;;;;;;;;7.20;99.90;;;;;;5042191;28;19905;-78
2022/12/27 06:43:33;;;;;;;;;;;7.20;99.90;;;;;;5038143;28;19917;-77
2022/12/27 06:46:02;;;;;;;;;;;7.10;99.90;;;;;;5048800;28;19905;-77
2022/12/27 06:48:28;;;;;;;;;;;7.10;99.90;;;;;;5044952;28;19917;-77
2022/12/27 06:50:56;;;;;;;;;;;7.10;99.90;;;;;;5036858;28;19985;-77
2022/12/27 06:53:23;;;;;;;;;;;7.10;99.90;;;;;;5041159;28;19905;-77
2022/12/27 06:56:06;;;;;;;;;;;7.20;99.90;;;;;;5039669;28;19928;-76
2022/12/27 06:58:32;;;;;;;;;;;7.10;99.90;;;;;;5040641;28;19976;-78
2022/12/27 07:01:05;;;;;;;;;;;7.10;99.90;;;;;;5021313;28;19909;-77
2022/12/27 07:03:32;;;;;;;;;;;5.60;99.90;;;;;;5049574;28;19912;-76
2022/12/27 07:06:05;;;;;;;;;;;7.10;99.90;;;;;;5047711;28;19905;-77
2022/12/27 07:08:41;;;;;;;;;;;7.10;99.90;;;;;;5034799;28;19995;-82
2022/12/27 07:11:21;;;;;;;;;;;7.00;99.90;;;;;;5020190;28;20061;-77
2022/12/27 07:13:48;;;;;;;;;;;7.10;99.90;;;;;;5038099;28;19909;-76
2022/12/27 07:16:15;;;;;;;;;;;5.00;99.90;;;;;;5017377;28;19987;-78
2022/12/27 07:18:41;;;;;;;;;;;7.20;99.90;;;;;;5014932;28;19940;-85
2022/12/27 07:21:29;;;;;;;;;;;7.10;99.90;;;;;;5041094;28;19928;-83
2022/12/27 07:23:55;;;;;;;;;;;7.70;99.90;;;;;;5038795;28;19905;-77
2022/12/27 07:26:30;;;;;;;;;;;8.20;99.90;;;;;;5030850;28;19909;-77
2022/12/27 07:28:56;;;;;;;;;;;7.20;99.90;;;;;;5024942;28;19963;-77
2022/12/27 07:31:25;;;;;;;;;;;7.30;99.90;;;;;;5028766;28;19909;-77
2022/12/27 07:33:51;;;;;;;;;;;9.40;99.90;;;;;;5036106;28;19905;-78
2022/12/27 07:36:18;;;;;;;;;;;7.40;99.90;;;;;;5038906;28;19996;-77
2022/12/27 07:38:45;;;;;;;;;;;7.40;99.90;;;;;;5037405;28;20115;-77
2022/12/27 07:41:13;;;;;;;;;;;7.50;99.90;;;;;;5034344;28;19909;-77
2022/12/27 07:43:39;;;;;;;;;;;7.60;99.90;;;;;;5033087;28;19912;-78
2022/12/27 07:46:08;;;;;;;;;;;7.60;99.90;;;;;;5033391;28;19909;-79
2022/12/27 07:48:33;;;;;;;;;;;5.10;99.90;;;;;;5033074;28;20039;-77
2022/12/27 07:50:59;;;;;;;;;;;7.70;99.90;;;;;;5028584;28;19916;-77
2022/12/27 07:53:25;;;;;;;;;;;7.80;99.90;;;;;;5037045;28;19905;-78
2022/12/27 07:55:52;;;;;;;;;;;7.90;99.90;;;;;;5030243;28;19936;-77
2022/12/27 07:58:38;;;;;;;;;;;8.10;99.90;;;;;;5028359;28;19920;-77
2022/12/27 08:01:04;;;;;;;;;;;8.00;99.90;;;;;;4971478;28;19914;-78
2022/12/27 08:03:30;;;;;;;;;;;8.10;99.90;;;;;;4953885;28;19910;-77
2022/12/27 08:05:55;;;;;;;;;;;8.30;99.90;;;;;;4968183;28;19952;-77
2022/12/27 08:08:22;;;;;;;;;;;8.80;99.90;;;;;;4975704;28;19905;-77
2022/12/27 08:10:49;;;;;;;;;;;8.80;99.90;;;;;;4970775;28;19961;-78
2022/12/27 08:13:22;;;;;;;;;;;8.60;99.90;;;;;;4953838;28;19906;-78
2022/12/27 08:15:50;;;;;;;;;;;8.60;99.90;;;;;;4976367;28;19922;-77
2022/12/27 08:18:16;;;;;;;;;;;8.90;99.90;;;;;;4971144;28;19964;-77
2022/12/27 08:20:42;;;;;;;;;;;9.00;99.90;;;;;;4954063;28;19910;-76
2022/12/27 08:23:15;;;;;;;;;;;9.10;99.90;;;;;;4968961;28;19910;-76
2022/12/27 08:25:40;;;;;;;;;;;9.20;99.90;;;;;;4972042;28;19948;-78
2022/12/27 08:28:07;;;;;;;;;;;6.70;99.90;;;;;;4974937;28;19906;-76
2022/12/27 08:30:33;;;;;;;;;;;8.80;99.90;;;;;;4970288;28;20004;-77
2022/12/27 08:33:00;;;;;;;;;;;7.10;99.90;;;;;;4977429;28;19917;-76
2022/12/27 08:35:27;;;;;;;;;;;9.30;99.90;;;;;;4976107;28;19906;-79
2022/12/27 08:38:18;;;;;;;;;;;9.30;99.90;;;;;;4990267;28;19960;-77
2022/12/27 08:40:48;;;;;;;;;;;10.00;99.90;;;;;;5039082;28;19909;-77
2022/12/27 08:43:15;;;;;;;;;;;9.50;99.90;;;;;;5034263;28;19919;-76
2022/12/27 08:45:40;;;;;;;;;;;10.00;99.90;;;;;;5029031;28;20124;-77
2022/12/27 08:48:06;;;;;;;;;;;9.80;99.90;;;;;;5040759;28;20007;-76
2022/12/27 08:50:33;;;;;;;;;;;9.40;99.90;;;;;;5036097;28;19928;-77
2022/12/27 08:53:00;;;;;;;;;;;9.50;99.90;;;;;;5030801;28;19916;-77
2022/12/27 08:55:27;;;;;;;;;;;9.90;99.90;;;;;;5031965;28;19905;-76
2022/12/27 08:58:00;;;;;;;;;;;10.00;99.90;;;;;;5018841;28;19905;-78
2022/12/27 09:00:27;;;;;;;;;;;10.20;99.90;;;;;;5015257;28;19909;-77
2022/12/27 09:02:53;;;;;;;;;;;10.70;99.90;;;;;;5032622;28;19976;-77
2022/12/27 09:05:20;;;;;;;;;;;9.50;99.90;;;;;;5015899;28;20142;-77
2022/12/27 09:07:51;;;;;;;;;;;10.40;99.90;;;;;;5043655;28;19905;-78
2022/12/27 09:10:20;;;;;;;;;;;10.10;99.90;;;;;;5042634;28;19984;-79
2022/12/27 09:12:46;;;;;;;;;;;10.30;99.90;;;;;;5020934;28;19905;-77
2022/12/27 09:15:18;;;;;;;;;;;8.80;99.90;;;;;;5037862;28;19972;-78
2022/12/27 09:17:46;;;;;;;;;;;10.70;99.90;;;;;;5036194;28;19944;-77
2022/12/27 09:20:14;;;;;;;;;;;8.00;99.90;;;;;;5033305;28;19909;-76
2022/12/27 09:22:40;;;;;;;;;;;10.80;99.90;;;;;;5015361;28;19905;-78
2022/12/27 09:25:06;;;;;;;;;;;11.00;99.90;;;;;;5014528;28;19905;-78
2022/12/27 09:27:33;;;;;;;;;;;11.10;99.90;;;;;;5024712;28;19912;-80
2022/12/27 09:29:59;;;;;;;;;;;10.30;99.90;;;;;;5028017;28;20344;-79
2022/12/27 09:32:40;;;;;;;;;;;11.40;99.90;;;;;;5007600;28;20463;-87
2022/12/27 09:35:13;;;;;;;;;;;10.50;99.90;;;;;;5010599;28;19909;-78
2022/12/27 09:37:39;;;;;;;;;;;11.70;99.90;;;;;;5022136;28;19924;-75
2022/12/27 09:40:05;;;;;;;;;;;11.80;99.90;;;;;;5019405;28;19991;-76
2022/12/27 09:42:34;;;;;;;;;;;11.90;99.90;;;;;;5019552;28;19905;-76
2022/12/27 09:45:08;;;;;;;;;;;11.90;99.90;;;;;;5021691;28;19905;-79
2022/12/27 09:47:34;;;;;;;;;;;11.90;99.90;;;;;;5027247;28;19901;-78
2022/12/27 09:50:10;;;;;;;;;;;12.00;99.90;;;;;;5034918;28;20607;-78
2022/12/27 09:52:39;;;;;;;;;;;11.90;99.90;;;;;;5047020;28;19919;-75
2022/12/27 09:55:19;;;;;;;;;;;9.30;99.90;;;;;;5051716;28;19916;-78
2022/12/27 09:57:45;;;;;;;;;;;12.00;99.90;;;;;;5024280;28;19915;-79
2022/12/27 10:00:18;;;;;;;;;;;12.00;99.90;;;;;;5041781;28;20490;-79
2022/12/27 10:02:44;;;;;;;;;;;12.00;99.90;;;;;;5044925;28;20019;-78
2022/12/27 10:05:23;;;;;;;;;;;12.00;99.90;;;;;;5062369;28;19999;-80
2022/12/27 10:08:04;;;;;;;;;;;12.00;99.90;;;;;;5059075;28;19904;-79
2022/12/27 10:10:45;;;;;;;;;;;12.00;99.90;;;;;;5038756;28;19995;-78
2022/12/27 10:13:23;;;;;;;;;;;12.10;99.90;;;;;;5044330;28;19904;-77
2022/12/27 10:15:59;;;;;;;;;;;12.10;99.90;;;;;;5061808;28;19913;-78
2022/12/27 10:18:27;;;;;;;;;;;12.10;99.90;;;;;;5061690;28;19919;-78
2022/12/27 10:21:12;;;;;;;;;;;12.20;99.90;;;;;;5061654;28;19948;-78
2022/12/27 10:23:41;;;;;;;;;;;12.30;99.90;;;;;;5060492;28;19909;-78
2022/12/27 10:26:11;;;;;;;;;;;12.40;99.90;;;;;;5060887;28;19906;-79
2022/12/27 10:28:42;;;;;;;;;;;12.40;99.90;;;;;;5043631;28;19908;-81
2022/12/27 10:31:12;;;;;;;;;;;12.40;99.90;;;;;;5043314;28;20431;-82
2022/12/27 10:33:39;;;;;;;;;;;12.40;99.90;;;;;;5061867;28;19908;-83
2022/12/27 10:36:15;;;;;;;;;;;12.50;99.90;;;;;;5062102;28;20623;-81
2022/12/27 10:38:41;;;;;;;;;;;12.50;99.90;;;;;;5033969;28;19908;-79
2022/12/27 10:41:12;;;;;;;;;;;12.40;99.90;;;;;;5023164;28;19909;-79
2022/12/27 10:43:40;;;;;;;;;;;12.40;99.90;;;;;;5040452;28;19908;-78
2022/12/27 10:46:13;;;;;;;;;;;12.50;99.90;;;;;;5039966;28;19978;-79
2022/12/27 10:48:38;;;;;;;;;;;12.40;99.90;;;;;;5022978;28;19909;-78
2022/12/27 10:51:14;;;;;;;;;;;12.30;99.90;;;;;;5041094;28;19966;-82
2022/12/27 10:54:00;;;;;;;;;;;12.40;99.90;;;;;;5022560;28;20402;-78
2022/12/27 10:56:27;;;;;;;;;;;14.70;99.90;;;;;;5021185;28;19916;-83
2022/12/27 10:58:54;;;;;;;;;;;12.30;99.90;;;;;;5040700;28;19912;-78
2022/12/27 11:01:24;;;;;;;;;;;12.30;99.90;;;;;;5022881;28;19908;-80
2022/12/27 11:03:53;;;;;;;;;;;12.30;99.90;;;;;;5040707;28;19905;-81
2022/12/27 11:06:23;;;;;;;;;;;11.90;99.90;;;;;;5040780;28;20007;-78
2022/12/27 11:08:49;;;;;;;;;;;12.40;99.90;;;;;;5040898;28;19913;-79
2022/12/27 11:11:22;;;;;;;;;;;12.40;99.90;;;;;;5022887;28;20554;-78
2022/12/27 11:13:49;;;;;;;;;;;12.50;99.90;;;;;;5040357;28;19904;-79
2022/12/27 11:16:14;;;;;;;;;;;12.50;99.90;;;;;;5039860;28;19920;-80
2022/12/27 11:18:44;;;;;;;;;;;12.50;99.90;;;;;;5040222;28;19904;-82
2022/12/27 11:21:11;;;;;;;;;;;13.90;99.90;;;;;;5022575;28;20003;-84
2022/12/27 11:23:40;;;;;;;;;;;12.90;99.90;;;;;;5040535;28;19905;-79
2022/12/27 11:26:06;;;;;;;;;;;12.60;99.90;;;;;;5040433;28;19912;-79
2022/12/27 11:28:36;;;;;;;;;;;12.40;99.90;;;;;;5040347;28;19904;-79
2022/12/27 11:31:04;;;;;;;;;;;12.70;99.90;;;;;;5039617;28;19909;-80
2022/12/27 11:33:59;;;;;;;;;;;12.80;99.90;;;;;;5039760;28;19909;-82
2022/12/27 11:36:27;;;;;;;;;;;12.90;99.90;;;;;;4958146;28;20001;-81
2022/12/27 11:38:55;;;;;;;;;;;13.00;99.90;;;;;;4958374;28;20581;-79
2022/12/27 11:41:39;;;;;;;;;;;13.20;99.90;;;;;;4958068;28;19917;-79
2022/12/27 11:44:17;;;;;;;;;;;14.30;99.90;;;;;;4957670;28;19913;-79
2022/12/27 11:46:46;;;;;;;;;;;13.40;99.90;;;;;;4958060;28;19906;-83
2022/12/27 11:49:22;;;;;;;;;;;13.50;99.90;;;;;;4958250;28;19922;-81
2022/12/27 11:51:50;;;;;;;;;;;14.00;99.90;;;;;;4942055;28;19910;-79
2022/12/27 11:54:19;;;;;;;;;;;12.30;99.90;;;;;;4958117;28;20190;-78
2022/12/27 11:56:49;;;;;;;;;;;14.20;99.90;;;;;;4941784;28;20593;-82
2022/12/27 11:59:39;;;;;;;;;;;13.80;99.90;;;;;;4941942;28;19906;-80
2022/12/27 12:02:24;;;;;;;;;;;13.90;99.90;;;;;;4959318;28;19980;-79
2022/12/27 12:05:09;;;;;;;;;;;14.00;99.90;;;;;;4958309;28;20637;-82
2022/12/27 12:07:35;;;;;;;;;;;14.10;99.90;;;;;;4940840;28;19906;-79
2022/12/27 12:10:06;;;;;;;;;;;14.20;99.90;;;;;;4957698;28;19906;-82
2022/12/27 12:12:54;;;;;;;;;;;14.20;99.90;;;;;;4986480;28;19904;-79
2022/12/27 12:15:35;;;;;;;;;;;14.20;99.90;;;;;;5021004;28;20023;-80
2022/12/27 12:18:01;;;;;;;;;;;14.30;99.90;;;;;;5021182;28;19919;-77
2022/12/27 12:20:32;;;;;;;;;;;14.80;99.90;;;;;;5040321;28;19904;-78
2022/12/27 12:22:58;;;;;;;;;;;13.90;99.90;;;;;;5039813;28;19905;-80
2022/12/27 12:28:40;;;;;;;;;;;14.70;99.90;;;;;;5016581;28;20008;-81
2022/12/27 12:31:27;;;;;;;;;;;14.10;99.90;;;;;;5015975;28;20006;-81
2022/12/27 12:34:15;;;;;;;;;;;13.90;99.90;;;;;;5016742;28;19961;-79
2022/12/27 12:36:54;;;;;;;;;;;13.90;99.90;;;;;;5016418;28;20117;-83
2022/12/27 12:39:26;;;;;;;;;;;13.80;99.90;;;;;;5016728;28;20050;-81
2022/12/27 12:42:00;;;;;;;;;;;13.80;99.90;;;;;;5016332;28;19912;-85
2022/12/27 12:44:52;;;;;;;;;;;13.80;99.90;;;;;;5016560;28;19905;-79
2022/12/27 12:47:17;;;;;;;;;;;13.70;99.90;;;;;;4938497;28;19975;-82
2022/12/27 12:50:04;;;;;;;;;;;13.70;99.90;;;;;;4939919;29;20016;-82
2022/12/27 12:52:48;;;;;;;;;;;13.60;99.90;;;;;;4938255;28;20489;-81
2022/12/27 12:55:16;;;;;;;;;;;13.60;99.90;;;;;;4922175;29;20024;-81
2022/12/27 12:57:42;;;;;;;;;;;13.50;99.90;;;;;;4937599;29;19922;-84
2022/12/27 13:00:14;;;;;;;;;;;13.50;99.90;;;;;;4937581;29;20559;-79
2022/12/27 13:02:48;;;;;;;;;;;13.50;99.90;;;;;;4921639;29;19949;-83
2022/12/27 13:05:34;;;;;;;;;;;13.50;99.90;;;;;;4938830;29;20656;-78
2022/12/27 13:08:18;;;;;;;;;;;13.40;99.90;;;;;;4937449;29;20017;-83
2022/12/27 13:11:02;;;;;;;;;;;11.00;99.90;;;;;;4937339;29;20175;-78
2022/12/27 13:13:34;;;;;;;;;;;13.40;99.90;;;;;;4937838;29;19914;-79
2022/12/27 13:16:02;;;;;;;;;;;13.40;99.90;;;;;;4937620;29;19959;-79
2022/12/27 13:18:46;;;;;;;;;;;13.40;99.90;;;;;;4921429;29;19950;-80
2022/12/27 13:21:30;;;;;;;;;;;13.40;99.90;;;;;;4922143;29;20009;-83
2022/12/27 13:24:11;;;;;;;;;;;13.40;99.90;;;;;;4978863;28;19908;-80
2022/12/27 13:26:48;;;;;;;;;;;13.40;99.90;;;;;;5039131;28;19927;-81
2022/12/27 13:29:17;;;;;;;;;;;13.40;99.90;;;;;;5037396;28;19905;-77
2022/12/27 13:32:02;;;;;;;;;;;13.40;99.90;;;;;;5032000;28;20544;-79
2022/12/27 13:34:35;;;;;;;;;;;13.40;99.90;;;;;;5002098;28;19913;-79
2022/12/27 13:37:10;;;;;;;;;;;13.40;99.90;;;;;;5000722;28;19913;-80
2022/12/27 13:39:41;;;;;;;;;;;13.30;99.90;;;;;;5016099;28;21375;-82
2022/12/27 13:42:07;;;;;;;;;;;13.30;99.90;;;;;;5037770;28;19901;-83
2022/12/27 13:44:33;;;;;;;;;;;13.30;99.90;;;;;;5037587;28;19916;-80
2022/12/27 13:47:06;;;;;;;;;;;13.30;99.90;;;;;;5037935;28;19912;-81
2022/12/27 13:49:37;;;;;;;;;;;13.30;99.90;;;;;;5037852;28;19916;-83
2022/12/27 13:52:21;;;;;;;;;;;13.30;99.90;;;;;;5038693;28;20112;-78
2022/12/27 13:54:47;;;;;;;;;;;13.30;99.90;;;;;;5036013;28;19940;-81
2022/12/27 13:57:19;;;;;;;;;;;13.30;99.90;;;;;;5037988;28;20548;-83
2022/12/27 13:59:50;;;;;;;;;;;13.30;99.90;;;;;;5019985;28;20070;-82
2022/12/27 14:02:25;;;;;;;;;;;13.20;99.90;;;;;;5049213;28;20007;-79
2022/12/27 14:05:00;;;;;;;;;;;13.20;99.90;;;;;;5058058;28;19912;-79
2022/12/27 14:07:44;;;;;;;;;;;13.20;99.90;;;;;;5057588;28;20469;-79
2022/12/27 14:10:26;;;;;;;;;;;13.10;99.90;;;;;;5050932;28;19905;-81
2022/12/27 14:12:56;;;;;;;;;;;13.90;99.90;;;;;;5038540;28;19939;-76
2022/12/27 14:15:25;;;;;;;;;;;13.00;99.90;;;;;;5038990;28;19935;-82
2022/12/27 14:17:51;;;;;;;;;;;13.00;99.90;;;;;;5059013;28;20110;-79
2022/12/27 14:20:24;;;;;;;;;;;12.50;99.90;;;;;;5065534;28;19912;-78
2022/12/27 14:23:16;;;;;;;;;;;12.90;99.90;;;;;;5064968;28;19990;-77
2022/12/27 14:26:00;;;;;;;;;;;12.70;99.90;;;;;;5017777;28;19912;-79
2022/12/27 14:28:36;;;;;;;;;;;12.60;99.90;;;;;;5067077;28;19901;-77
2022/12/27 14:31:21;;;;;;;;;;;12.40;99.90;;;;;;5072449;28;19904;-81
2022/12/27 14:34:06;;;;;;;;;;;12.50;99.90;;;;;;5052757;28;19935;-82
2022/12/27 14:36:43;;;;;;;;;;;13.90;99.90;;;;;;5067741;28;19912;-78
2022/12/27 14:39:19;;;;;;;;;;;12.20;99.90;;;;;;5066082;28;19958;-77
2022/12/27 14:41:54;;;;;;;;;;;12.20;99.90;;;;;;5023547;28;20552;-80
2022/12/27 14:44:28;;;;;;;;;;;12.10;99.90;;;;;;5024114;28;19908;-75
2022/12/27 14:47:32;;;;;;;;;;;12.10;99.90;;;;;;5022638;28;20512;-83
2022/12/27 14:50:06;;;;;;;;;;;12.00;99.90;;;;;;5005192;28;19999;-80
2022/12/27 14:52:51;;;;;;;;;;;12.00;99.90;;;;;;5022543;28;19959;-76
2022/12/27 14:55:35;;;;;;;;;;;12.00;99.90;;;;;;5024086;28;20005;-74
2022/12/27 14:58:13;;;;;;;;;;;11.90;99.90;;;;;;5064282;28;19912;-79
2022/12/27 15:01:05;;;;;;;;;;;11.80;99.90;;;;;;5063664;28;20530;-78
2022/12/27 15:03:43;;;;;;;;;;;13.90;99.90;;;;;;4965066;28;20603;-79
2022/12/27 15:06:14;;;;;;;;;;;11.70;99.90;;;;;;4981354;28;19902;-77
2022/12/27 15:08:57;;;;;;;;;;;11.60;99.90;;;;;;4981571;28;20418;-79
2022/12/27 15:11:41;;;;;;;;;;;11.60;99.90;;;;;;4965711;28;19906;-79
2022/12/27 15:14:10;;;;;;;;;;;8.20;99.90;;;;;;4965486;28;19933;-79
2022/12/27 15:16:43;;;;;;;;;;;11.40;99.90;;;;;;4947487;28;20526;-80
2022/12/27 15:19:23;;;;;;;;;;;11.40;99.90;;;;;;4947516;28;20164;-78
2022/12/27 15:21:49;;;;;;;;;;;11.30;99.90;;;;;;4964196;28;20436;-78
2022/12/27 15:24:25;;;;;;;;;;;11.30;99.90;;;;;;4961671;28;19906;-78
2022/12/27 15:26:53;;;;;;;;;;;11.20;99.90;;;;;;4964365;28;19909;-78
2022/12/27 15:29:28;;;;;;;;;;;11.20;99.90;;;;;;4963782;28;19906;-77
2022/12/27 15:32:16;;;;;;;;;;;11.00;99.90;;;;;;4961449;28;19917;-78
2022/12/27 15:35:00;;;;;;;;;;;11.00;99.90;;;;;;4958093;28;19933;-76
2022/12/27 15:37:45;;;;;;;;;;;11.00;99.90;;;;;;4961378;28;19921;-78
2022/12/27 15:40:30;;;;;;;;;;;10.90;99.90;;;;;;4995578;28;19955;-77
2022/12/27 15:43:14;;;;;;;;;;;10.90;99.90;;;;;;4979782;28;19906;-78
2022/12/27 15:49:12;;;;;;;;;;;10.80;99.90;;;;;;4922937;29;20336;-77
2022/12/27 15:51:51;;;;;;;;;;;10.80;99.90;;;;;;4886584;29;19998;-77
2022/12/27 15:54:31;;;;;;;;;;;11.00;99.90;;;;;;4922529;29;19940;-77
2022/12/27 15:57:15;;;;;;;;;;;10.90;99.90;;;;;;4908760;29;19915;-78
2022/12/27 15:59:52;;;;;;;;;;;10.90;99.90;;;;;;4927131;29;19902;-79
2022/12/27 16:02:24;;;;;;;;;;;10.80;99.90;;;;;;4924694;29;19911;-78
2022/12/27 16:04:59;;;;;;;;;;;10.80;99.90;;;;;;4941101;29;19911;-77
2022/12/27 16:07:44;;;;;;;;;;;11.70;99.90;;;;;;4925640;29;19907;-79
2022/12/27 16:10:28;;;;;;;;;;;9.60;99.90;;;;;;4925310;29;19917;-78
2022/12/27 16:12:56;;;;;;;;;;;10.60;99.90;;;;;;4929260;29;20004;-79
2022/12/27 16:15:41;;;;;;;;;;;10.40;99.90;;;;;;4931624;29;19914;-76
2022/12/27 16:18:17;;;;;;;;;;;10.30;99.90;;;;;;4926677;29;19915;-77
2022/12/27 16:20:59;;;;;;;;;;;10.10;99.90;;;;;;4958637;28;19961;-77
2022/12/27 16:23:27;;;;;;;;;;;10.00;99.90;;;;;;4966244;28;19906;-77
2022/12/27 16:26:11;;;;;;;;;;;9.80;99.90;;;;;;4989129;28;19906;-77
2022/12/27 16:28:38;;;;;;;;;;;9.60;99.90;;;;;;5048982;28;19915;-77
2022/12/27 16:31:13;;;;;;;;;;;9.60;99.90;;;;;;5028229;28;19919;-78
2022/12/27 16:33:40;;;;;;;;;;;9.50;99.90;;;;;;5054000;28;19905;-78